Time;durP1;ratioP1;P1;durP2;ratioP2;P2;SDS_P1;SDS_P2;PMS_P1;PMS_P2;Temp;Humidity;BMP_temperature;BMP_pressure;BME280_temperature;BME280_humidity;BME280_pressure;Samples;Min_cycle;Max_cycle;Signal;HPM_P1;HPM_P2
2021/09/11 00:00:31;;;;;;;82.25;44.33;;;;;;;;;;5105962;28;20047;-86
2021/09/11 00:02:58;;;;;;;80.55;44.00;;;;;;;;;;5119350;27;20058;-86
2021/09/11 00:05:26;;;;;;;90.85;46.42;;;;;;;;;;5122010;28;20540;-86
2021/09/11 00:07:54;;;;;;;79.55;43.00;;;;;;;;;;5105475;28;20048;-87
2021/09/11 00:10:21;;;;;;;80.20;42.78;;;;;;;;;;5121528;28;20068;-86
2021/09/11 00:12:48;;;;;;;88.28;44.72;;;;;;;;;;5137721;27;20051;-86
2021/09/11 00:15:17;;;;;;;78.55;43.33;;;;;;;;;;5138180;27;20120;-87
2021/09/11 00:17:44;;;;;;;86.20;43.55;;;;;;;;;;5139161;27;20039;-86
2021/09/11 00:20:11;;;;;;;99.45;50.92;;;;;;;;;;5123609;27;20116;-87
2021/09/11 00:22:38;;;;;;;90.60;48.70;;;;;;;;;;5140918;27;20418;-86
2021/09/11 00:25:04;;;;;;;95.40;48.25;;;;;;;;;;5141204;27;20047;-85
2021/09/11 00:27:31;;;;;;;84.97;44.80;;;;;;;;;;5142632;27;20366;-86
2021/09/11 00:30:02;;;;;;;95.78;50.30;;;;;;;;;;5123961;27;20051;-87
2021/09/11 00:32:28;;;;;;;86.15;47.05;;;;;;;;;;5124705;27;20047;-87
2021/09/11 00:34:55;;;;;;;86.35;44.92;;;;;;;;;;5142822;27;20055;-87
2021/09/11 00:37:21;;;;;;;94.13;47.53;;;;;;;;;;5124392;27;20066;-86
2021/09/11 00:39:48;;;;;;;79.88;45.80;;;;;;;;;;5143567;27;20047;-86
2021/09/11 00:42:15;;;;;;;88.53;47.08;;;;;;;;;;5125839;27;20062;-87
2021/09/11 00:44:41;;;;;;;87.75;46.58;;;;;;;;;;5141639;27;20450;-86
2021/09/11 00:47:08;;;;;;;88.75;45.35;;;;;;;;;;5122368;27;20059;-87
2021/09/11 00:49:35;;;;;;;90.18;46.22;;;;;;;;;;5123880;27;20051;-86
2021/09/11 00:52:02;;;;;;;88.95;46.25;;;;;;;;;;5124287;28;20133;-86
2021/09/11 00:54:29;;;;;;;85.75;44.97;;;;;;;;;;5098390;28;20048;-86
2021/09/11 00:56:55;;;;;;;87.55;47.22;;;;;;;;;;5099844;28;20046;-86
2021/09/11 00:59:22;;;;;;;99.00;47.92;;;;;;;;;;5098855;28;20039;-86
2021/09/11 01:01:49;;;;;;;106.55;50.03;;;;;;;;;;5097795;28;20332;-86
2021/09/11 01:04:16;;;;;;;91.13;47.92;;;;;;;;;;5122434;28;20081;-87
2021/09/11 01:06:43;;;;;;;92.45;45.55;;;;;;;;;;5103588;28;20142;-87
2021/09/11 01:09:09;;;;;;;89.57;45.40;;;;;;;;;;5103532;28;20058;-87
2021/09/11 01:11:39;;;;;;;91.10;47.83;;;;;;;;;;5102221;28;20507;-86
2021/09/11 01:14:08;;;;;;;101.32;48.20;;;;;;;;;;5102501;28;20401;-87
2021/09/11 01:16:40;;;;;;;92.03;46.70;;;;;;;;;;5103718;28;20154;-86
2021/09/11 01:19:07;;;;;;;93.60;44.78;;;;;;;;;;5121501;28;20159;-87
2021/09/11 01:21:34;;;;;;;86.65;44.67;;;;;;;;;;5123456;28;20079;-86
2021/09/11 01:24:03;;;;;;;96.72;48.45;;;;;;;;;;5136755;28;20114;-86
2021/09/11 01:26:29;;;;;;;89.13;44.85;;;;;;;;;;5136138;28;20061;-86
2021/09/11 01:28:56;;;;;;;97.60;48.80;;;;;;;;;;5124936;28;20246;-86
2021/09/11 01:31:22;;;;;;;92.25;46.20;;;;;;;;;;5124409;28;20052;-86
2021/09/11 01:33:49;;;;;;;87.50;45.75;;;;;;;;;;5138299;27;20075;-87
2021/09/11 01:36:16;;;;;;;95.63;46.92;;;;;;;;;;5138523;27;20052;-86
2021/09/11 01:38:42;;;;;;;96.95;48.88;;;;;;;;;;5148733;27;20040;-86
2021/09/11 01:41:12;;;;;;;92.15;47.45;;;;;;;;;;5149996;27;20051;-86
2021/09/11 01:43:39;;;;;;;79.68;43.58;;;;;;;;;;5136239;27;20281;-87
2021/09/11 01:46:06;;;;;;;84.60;44.65;;;;;;;;;;5139248;27;20076;-86
2021/09/11 01:48:32;;;;;;;86.97;45.45;;;;;;;;;;5134506;28;20102;-86
2021/09/11 01:51:02;;;;;;;99.30;47.40;;;;;;;;;;5130975;28;20066;-86
2021/09/11 01:53:29;;;;;;;87.75;46.20;;;;;;;;;;5148433;27;20062;-87
2021/09/11 01:55:55;;;;;;;96.07;48.63;;;;;;;;;;5114854;28;20055;-86
2021/09/11 01:58:22;;;;;;;90.45;46.38;;;;;;;;;;5125844;27;20070;-86
2021/09/11 02:00:49;;;;;;;96.82;48.22;;;;;;;;;;5100137;28;20379;-87
2021/09/11 02:03:16;;;;;;;93.43;47.42;;;;;;;;;;5099805;28;20088;-87
2021/09/11 02:05:43;;;;;;;94.22;48.97;;;;;;;;;;5113989;28;20052;-86
2021/09/11 02:08:10;;;;;;;107.18;50.47;;;;;;;;;;5081681;28;20056;-87
2021/09/11 02:10:36;;;;;;;88.25;47.00;;;;;;;;;;5104805;28;20076;-87
2021/09/11 02:13:03;;;;;;;93.10;48.00;;;;;;;;;;5096616;28;20056;-88
2021/09/11 02:15:32;;;;;;;95.10;48.55;;;;;;;;;;5120948;27;20051;-86
2021/09/11 02:18:05;;;;;;;92.97;48.25;;;;;;;;;;5127783;27;20093;-86
2021/09/11 02:20:44;;;;;;;97.05;49.17;;;;;;;;;;5125966;27;20055;-87
2021/09/11 02:23:10;;;;;;;95.95;48.60;;;;;;;;;;5141817;27;20047;-87
2021/09/11 02:25:38;;;;;;;95.97;47.35;;;;;;;;;;5108240;28;20487;-87
2021/09/11 02:28:08;;;;;;;99.22;49.72;;;;;;;;;;5129421;28;20050;-86
2021/09/11 02:30:34;;;;;;;92.53;45.85;;;;;;;;;;5136535;28;20036;-87
2021/09/11 02:33:01;;;;;;;99.53;47.58;;;;;;;;;;5118347;28;20067;-86
2021/09/11 02:35:28;;;;;;;95.55;48.40;;;;;;;;;;5108241;28;20059;-87
2021/09/11 02:37:57;;;;;;;93.38;46.97;;;;;;;;;;5103942;28;20308;-87
2021/09/11 02:40:23;;;;;;;105.03;50.17;;;;;;;;;;5103382;28;20062;-87
2021/09/11 02:43:09;;;;;;;89.88;46.08;;;;;;;;;;5087296;28;20047;-87
2021/09/11 02:45:39;;;;;;;90.90;44.60;;;;;;;;;;5103864;28;20058;-88
2021/09/11 02:48:08;;;;;;;104.03;47.05;;;;;;;;;;5121492;28;20465;-87
2021/09/11 02:50:34;;;;;;;98.32;46.92;;;;;;;;;;5106678;28;20070;-87
2021/09/11 02:53:07;;;;;;;101.18;47.17;;;;;;;;;;5104259;28;20086;-87
2021/09/11 02:55:34;;;;;;;93.18;46.10;;;;;;;;;;5104747;28;20361;-85
2021/09/11 02:58:01;;;;;;;103.97;48.40;;;;;;;;;;5103775;28;20120;-86
2021/09/11 03:00:27;;;;;;;89.85;45.90;;;;;;;;;;5102645;28;20447;-86
2021/09/11 03:03:02;;;;;;;92.15;46.40;;;;;;;;;;5103369;28;20079;-86
2021/09/11 03:05:40;;;;;;;94.28;46.22;;;;;;;;;;5120248;28;20111;-86
2021/09/11 03:08:10;;;;;;;104.43;48.00;;;;;;;;;;5103232;28;20055;-86
2021/09/11 03:10:37;;;;;;;101.75;48.80;;;;;;;;;;5101027;28;20530;-86
2021/09/11 03:13:04;;;;;;;104.88;47.53;;;;;;;;;;5118888;28;20066;-86
2021/09/11 03:15:30;;;;;;;94.38;44.25;;;;;;;;;;5101506;28;20404;-87
2021/09/11 03:17:57;;;;;;;86.30;44.20;;;;;;;;;;5123523;28;20150;-86
2021/09/11 03:20:23;;;;;;;89.95;45.47;;;;;;;;;;5122193;28;20068;-86
2021/09/11 03:22:50;;;;;;;84.10;43.13;;;;;;;;;;5120903;27;20082;-86
2021/09/11 03:25:17;;;;;;;80.53;41.90;;;;;;;;;;5121401;28;20050;-86
2021/09/11 03:27:44;;;;;;;76.82;41.20;;;;;;;;;;5120215;28;20173;-86
2021/09/11 03:30:11;;;;;;;83.45;42.80;;;;;;;;;;5120976;28;20055;-87
2021/09/11 03:32:38;;;;;;;72.10;40.40;;;;;;;;;;5146980;27;20078;-87
2021/09/11 03:35:06;;;;;;;68.30;37.38;;;;;;;;;;5122125;28;20066;-86
2021/09/11 03:37:33;;;;;;;75.50;39.03;;;;;;;;;;5146626;27;20400;-86
2021/09/11 03:39:59;;;;;;;68.18;36.17;;;;;;;;;;5101415;28;20139;-86
2021/09/11 03:42:26;;;;;;;70.85;37.85;;;;;;;;;;5084608;28;20063;-86
2021/09/11 03:44:52;;;;;;;73.05;37.40;;;;;;;;;;5081012;28;20338;-87
2021/09/11 03:47:20;;;;;;;70.57;37.55;;;;;;;;;;5080218;28;20059;-87
2021/09/11 03:49:49;;;;;;;69.88;34.97;;;;;;;;;;5080789;28;20067;-87
2021/09/11 03:52:19;;;;;;;79.15;41.05;;;;;;;;;;5080362;28;20056;-87
2021/09/11 03:54:45;;;;;;;73.82;37.95;;;;;;;;;;5098000;28;20052;-88
2021/09/11 03:57:12;;;;;;;75.22;37.13;;;;;;;;;;5098664;28;20048;-87
2021/09/11 03:59:38;;;;;;;75.50;40.25;;;;;;;;;;5094361;28;20124;-87
2021/09/11 04:02:05;;;;;;;72.30;37.40;;;;;;;;;;5097024;28;20094;-88
2021/09/11 04:04:32;;;;;;;75.03;38.13;;;;;;;;;;5091248;28;20091;-87
2021/09/11 04:06:59;;;;;;;75.45;36.85;;;;;;;;;;5082522;28;20052;-87
2021/09/11 04:09:25;;;;;;;82.68;40.60;;;;;;;;;;5082605;28;20155;-87
2021/09/11 04:11:52;;;;;;;74.00;36.28;;;;;;;;;;5099381;28;20389;-88
2021/09/11 04:14:19;;;;;;;78.40;35.90;;;;;;;;;;5101165;28;20047;-87
2021/09/11 04:16:51;;;;;;;76.63;37.63;;;;;;;;;;5123592;28;20134;-87
2021/09/11 04:19:19;;;;;;;65.63;32.63;;;;;;;;;;5122114;28;20044;-87
2021/09/11 04:21:52;;;;;;;72.82;36.97;;;;;;;;;;5121006;28;20063;-87
2021/09/11 04:24:19;;;;;;;71.38;33.95;;;;;;;;;;5122326;28;20112;-87
2021/09/11 04:26:46;;;;;;;81.15;36.70;;;;;;;;;;5136021;28;20054;-86
2021/09/11 04:29:17;;;;;;;75.45;34.92;;;;;;;;;;5117095;28;20107;-87
2021/09/11 04:31:49;;;;;;;79.25;36.33;;;;;;;;;;5116763;28;20051;-86
2021/09/11 04:34:16;;;;;;;77.57;36.42;;;;;;;;;;5114746;28;20043;-87
2021/09/11 04:36:47;;;;;;;79.45;35.35;;;;;;;;;;5105558;28;20115;-87
2021/09/11 04:39:17;;;;;;;79.93;36.10;;;;;;;;;;5122293;28;20301;-87
2021/09/11 04:41:44;;;;;;;77.18;36.47;;;;;;;;;;5117790;28;20092;-87
2021/09/11 04:44:11;;;;;;;84.88;38.22;;;;;;;;;;5114658;28;20051;-87
2021/09/11 04:46:41;;;;;;;76.05;37.83;;;;;;;;;;5106209;28;20079;-87
2021/09/11 04:49:08;;;;;;;79.65;36.40;;;;;;;;;;5104023;28;20080;-87
2021/09/11 04:51:35;;;;;;;75.15;37.63;;;;;;;;;;5135140;28;20043;-87
2021/09/11 04:54:02;;;;;;;80.25;38.35;;;;;;;;;;5119858;28;20085;-86
2021/09/11 04:56:28;;;;;;;80.18;36.90;;;;;;;;;;5111334;28;20051;-87
2021/09/11 04:58:55;;;;;;;73.50;35.33;;;;;;;;;;5129438;28;20174;-88
2021/09/11 05:01:21;;;;;;;73.32;35.67;;;;;;;;;;5111008;28;20044;-86
2021/09/11 05:03:49;;;;;;;68.93;35.50;;;;;;;;;;5105584;28;20048;-88
2021/09/11 05:06:15;;;;;;;73.68;34.28;;;;;;;;;;5121330;28;20582;-87
2021/09/11 05:08:42;;;;;;;74.47;35.70;;;;;;;;;;5103806;28;20296;-87
2021/09/11 05:11:08;;;;;;;74.60;35.47;;;;;;;;;;5104193;28;20051;-87
2021/09/11 05:13:35;;;;;;;71.10;36.47;;;;;;;;;;5106037;28;20055;-87
2021/09/11 05:16:02;;;;;;;70.80;34.67;;;;;;;;;;5108380;28;20447;-87
2021/09/11 05:18:29;;;;;;;63.38;33.38;;;;;;;;;;5132853;28;20079;-86
2021/09/11 05:20:56;;;;;;;67.40;34.65;;;;;;;;;;5115716;28;20078;-87
2021/09/11 05:23:23;;;;;;;67.47;32.05;;;;;;;;;;5109769;28;20083;-87
2021/09/11 05:25:50;;;;;;;72.65;35.13;;;;;;;;;;5107546;28;20054;-88
2021/09/11 05:28:16;;;;;;;65.90;34.63;;;;;;;;;;5111101;28;20067;-88
2021/09/11 05:30:49;;;;;;;69.38;33.78;;;;;;;;;;5136320;28;20055;-88
2021/09/11 05:33:16;;;;;;;74.18;36.10;;;;;;;;;;5135733;28;20275;-88
2021/09/11 05:35:46;;;;;;;67.97;33.72;;;;;;;;;;5122875;28;20481;-88
2021/09/11 05:38:13;;;;;;;85.68;39.22;;;;;;;;;;5114050;27;20166;-88
2021/09/11 05:40:40;;;;;;;80.68;36.65;;;;;;;;;;5122322;27;20061;-88
2021/09/11 05:43:16;;;;;;;73.15;37.63;;;;;;;;;;5143412;27;20111;-87
2021/09/11 05:45:47;;;;;;;76.68;36.85;;;;;;;;;;5137332;27;20075;-87
2021/09/11 05:48:13;;;;;;;78.03;37.78;;;;;;;;;;5114646;28;20071;-87
2021/09/11 05:50:43;;;;;;;78.85;38.85;;;;;;;;;;5082360;28;20064;-87
2021/09/11 05:53:15;;;;;;;87.65;39.80;;;;;;;;;;5081285;28;20052;-87
2021/09/11 05:55:42;;;;;;;90.93;41.45;;;;;;;;;;5097897;28;20159;-87
2021/09/11 05:58:11;;;;;;;90.47;43.20;;;;;;;;;;5080282;28;20210;-87
2021/09/11 06:00:38;;;;;;;90.55;43.88;;;;;;;;;;5099026;28;20052;-87
2021/09/11 06:03:31;;;;;;;83.82;40.65;;;;;;;;;;5081573;28;20074;-87
2021/09/11 06:05:58;;;;;;;90.00;41.53;;;;;;;;;;5101925;28;20078;-88
2021/09/11 06:08:25;;;;;;;84.05;41.88;;;;;;;;;;5088542;28;20440;-87
2021/09/11 06:10:51;;;;;;;86.97;42.85;;;;;;;;;;5117751;27;20111;-86
2021/09/11 06:13:25;;;;;;;79.50;39.70;;;;;;;;;;5119857;28;20055;-86
2021/09/11 06:15:51;;;;;;;87.18;42.05;;;;;;;;;;5118503;28;20059;-86
2021/09/11 06:18:18;;;;;;;89.70;43.00;;;;;;;;;;5119189;28;20149;-86
2021/09/11 06:20:49;;;;;;;78.32;41.10;;;;;;;;;;5095408;28;20078;-87
2021/09/11 06:23:18;;;;;;;85.40;43.53;;;;;;;;;;5080653;28;20091;-87
2021/09/11 06:25:45;;;;;;;84.38;43.50;;;;;;;;;;5079834;28;20097;-87
2021/09/11 06:28:13;;;;;;;90.05;43.80;;;;;;;;;;5080743;28;20113;-86
2021/09/11 06:30:57;;;;;;;83.15;41.42;;;;;;;;;;5129998;27;20109;-86
2021/09/11 06:33:31;;;;;;;94.15;44.42;;;;;;;;;;5133170;27;20048;-86
2021/09/11 06:35:59;;;;;;;90.35;41.38;;;;;;;;;;5134453;27;20127;-86
2021/09/11 06:38:25;;;;;;;88.15;41.88;;;;;;;;;;5133435;27;20058;-86
2021/09/11 06:40:52;;;;;;;87.93;41.92;;;;;;;;;;5134122;27;20267;-86
2021/09/11 06:43:19;;;;;;;85.85;42.28;;;;;;;;;;5132462;27;20127;-87
2021/09/11 06:45:52;;;;;;;102.05;44.97;;;;;;;;;;5098945;28;20124;-87
2021/09/11 06:48:19;;;;;;;98.53;43.42;;;;;;;;;;5116964;28;20051;-86
2021/09/11 06:50:46;;;;;;;103.10;45.65;;;;;;;;;;5117651;28;20183;-87
2021/09/11 06:53:16;;;;;;;99.85;45.83;;;;;;;;;;5104897;28;20064;-87
2021/09/11 06:55:43;;;;;;;103.07;47.80;;;;;;;;;;5148236;27;20095;-87
2021/09/11 06:58:15;;;;;;;97.40;47.03;;;;;;;;;;5047482;28;20446;-87
2021/09/11 07:00:42;;;;;;;87.70;43.45;;;;;;;;;;5119433;28;20115;-87
2021/09/11 07:03:09;;;;;;;90.28;45.42;;;;;;;;;;5126075;28;20059;-87
2021/09/11 07:05:36;;;;;;;86.72;44.55;;;;;;;;;;5126794;28;20186;-86
2021/09/11 07:08:15;;;;;;;78.82;41.63;;;;;;;;;;5082424;28;20087;-87
2021/09/11 07:10:43;;;;;;;79.68;42.72;;;;;;;;;;5079308;28;20431;-86
2021/09/11 07:13:11;;;;;;;76.10;40.38;;;;;;;;;;5096257;28;20226;-87
2021/09/11 07:15:39;;;;;;;77.03;39.65;;;;;;;;;;5096319;28;20048;-86
2021/09/11 07:18:14;;;;;;;67.03;38.45;;;;;;;;;;5097322;28;20098;-87
2021/09/11 07:21:09;;;;;;;68.05;39.13;;;;;;;;;;5102949;28;20047;-87
2021/09/11 07:23:44;;;;;;;64.55;36.30;;;;;;;;;;5131906;28;20075;-87
2021/09/11 07:26:27;;;;;;;62.45;37.15;;;;;;;;;;5145010;27;20066;-88
2021/09/11 07:28:57;;;;;;;55.42;36.28;;;;;;;;;;5110824;28;20239;-87
2021/09/11 07:31:35;;;;;;;54.33;34.38;;;;;;;;;;5134063;28;20112;-86
2021/09/11 07:34:23;;;;;;;53.92;33.42;;;;;;;;;;5117835;28;20047;-87
2021/09/11 07:36:59;;;;;;;58.63;35.05;;;;;;;;;;5132213;28;20277;-86
2021/09/11 07:39:34;;;;;;;46.65;31.45;;;;;;;;;;5134475;28;20142;-87
2021/09/11 07:42:25;;;;;;;53.80;31.52;;;;;;;;;;5118251;28;20063;-87
2021/09/11 07:45:29;;;;;;;46.58;31.77;;;;;;;;;;5097157;28;20063;-86
2021/09/11 07:47:56;;;;;;;46.47;30.70;;;;;;;;;;5098746;28;20125;-87
2021/09/11 07:50:35;;;;;;;44.70;29.80;;;;;;;;;;5103708;28;20055;-86
2021/09/11 07:53:14;;;;;;;42.20;29.58;;;;;;;;;;5105291;28;20097;-86
2021/09/11 07:56:22;;;;;;;;;;;;;;;;;;;;;
2021/09/11 07:59:18;;;;;;;42.55;29.65;;;;;;;;;;5128726;28;20047;-85
2021/09/11 08:06:08;;;;;;;;;;;;;;;;;;;;;
2021/09/11 08:08:57;;;;;;;27.00;21.83;;;;;;;;;;5098692;28;20047;-86
2021/09/11 08:11:54;;;;;;;24.52;19.63;;;;;;;;;;5079474;28;20044;-86
2021/09/11 08:14:20;;;;;;;22.08;17.75;;;;;;;;;;5093185;28;20040;-86
2021/09/11 08:16:47;;;;;;;20.77;17.10;;;;;;;;;;5098785;28;20057;-86
2021/09/11 08:19:30;;;;;;;17.50;14.95;;;;;;;;;;5099485;28;20568;-85
2021/09/11 08:21:57;;;;;;;16.58;14.68;;;;;;;;;;5105428;28;20059;-85
2021/09/11 08:24:23;;;;;;;22.63;15.35;;;;;;;;;;5121629;28;20047;-86
2021/09/11 08:27:02;;;;;;;19.63;15.30;;;;;;;;;;5117863;27;20055;-85
2021/09/11 08:29:29;;;;;;;22.30;15.05;;;;;;;;;;5105855;28;20170;-85
2021/09/11 08:31:56;;;;;;;15.95;13.18;;;;;;;;;;5093787;28;20040;-85
2021/09/11 08:34:22;;;;;;;18.25;13.43;;;;;;;;;;5115952;28;20058;-85
2021/09/11 08:36:51;;;;;;;16.00;11.57;;;;;;;;;;5105783;28;20142;-86
2021/09/11 08:39:25;;;;;;;14.60;10.98;;;;;;;;;;5121052;28;20077;-86
2021/09/11 08:41:53;;;;;;;14.25;10.88;;;;;;;;;;5086260;28;20084;-85
2021/09/11 08:44:20;;;;;;;13.43;11.60;;;;;;;;;;5088450;28;20365;-85
2021/09/11 08:46:56;;;;;;;17.05;11.00;;;;;;;;;;5125757;28;20079;-86
2021/09/11 08:49:36;;;;;;;13.35;10.70;;;;;;;;;;5116529;27;20211;-85
2021/09/11 08:53:13;;;;;;;14.55;10.45;;;;;;;;;;5100468;28;20104;-86
2021/09/11 08:55:44;;;;;;;13.27;9.80;;;;;;;;;;5065370;28;20143;-85
2021/09/11 09:05:32;;;;;;;18.02;11.32;;;;;;;;;;4995806;28;20367;-85
2021/09/11 09:08:39;;;;;;;16.13;10.23;;;;;;;;;;4952460;28;20206;-85
2021/09/11 09:12:03;;;;;;;13.38;9.57;;;;;;;;;;4926294;28;20233;-83
2021/09/11 09:21:56;;;;;;;14.82;10.50;;;;;;;;;;5035300;28;20060;-84
2021/09/11 09:24:54;;;;;;;11.90;9.27;;;;;;;;;;5026971;28;20041;-84
2021/09/11 09:34:29;;;;;;;8.75;7.07;;;;;;;;;;5035963;28;20231;-85
2021/09/11 09:37:24;;;;;;;9.85;7.38;;;;;;;;;;5032129;28;20045;-84
2021/09/11 09:40:33;;;;;;;13.63;6.30;;;;;;;;;;5012809;28;20366;-84
2021/09/11 09:43:22;;;;;;;6.25;5.60;;;;;;;;;;5015154;28;20087;-84
2021/09/11 09:46:12;;;;;;;11.63;6.35;;;;;;;;;;4995820;28;20050;-84
2021/09/11 09:49:04;;;;;;;11.27;6.90;;;;;;;;;;5012527;28;20050;-85
2021/09/11 09:52:19;;;;;;;9.65;6.00;;;;;;;;;;5020316;28;20290;-85
2021/09/11 09:55:39;;;;;;;8.90;6.15;;;;;;;;;;4977859;28;20106;-84
2021/09/11 09:59:00;;;;;;;10.73;5.40;;;;;;;;;;4987268;28;20041;-84
2021/09/11 10:02:15;;;;;;;11.02;5.65;;;;;;;;;;5037955;28;20161;-83
2021/09/11 10:05:38;;;;;;;5.55;4.03;;;;;;;;;;5001623;28;20062;-85
2021/09/11 10:09:07;;;;;;;6.57;3.50;;;;;;;;;;5000133;28;20088;-85
2021/09/11 10:12:19;;;;;;;6.47;4.50;;;;;;;;;;5048655;28;20048;-84
2021/09/11 10:15:35;;;;;;;;;;;;;;;;;;;;;
2021/09/11 10:18:41;;;;;;;7.70;3.88;;;;;;;;;;5118157;28;20051;-84
2021/09/11 10:21:44;;;;;;;4.93;3.35;;;;;;;;;;5073705;28;20062;-84
2021/09/11 10:24:37;;;;;;;7.65;3.30;;;;;;;;;;5105112;28;20055;-85
2021/09/11 10:27:13;;;;;;;6.32;4.07;;;;;;;;;;5089989;28;20074;-83
2021/09/11 10:29:57;;;;;;;10.30;3.20;;;;;;;;;;5092163;28;20053;-84
2021/09/11 10:32:49;;;;;;;10.93;3.90;;;;;;;;;;5055581;28;20053;-83
2021/09/11 10:38:13;;;;;;;6.93;4.25;;;;;;;;;;5073737;28;20091;-84
2021/09/11 10:40:49;;;;;;;9.43;4.70;;;;;;;;;;5072527;28;20049;-84
2021/09/11 10:43:32;;;;;;;6.43;4.45;;;;;;;;;;5057022;28;20091;-84
2021/09/11 10:46:03;;;;;;;6.75;4.85;;;;;;;;;;5074381;28;20071;-84
2021/09/11 10:48:50;;;;;;;6.00;5.18;;;;;;;;;;5057529;28;20082;-83
2021/09/11 10:51:39;;;;;;;7.10;5.10;;;;;;;;;;5063045;28;20123;-83
2021/09/11 10:54:16;;;;;;;10.48;6.35;;;;;;;;;;5071420;28;20074;-85
2021/09/11 10:57:03;;;;;;;10.98;5.78;;;;;;;;;;5098272;28;20213;-84
2021/09/11 10:59:35;;;;;;;8.63;6.45;;;;;;;;;;5107118;28;20213;-84
2021/09/11 11:02:02;;;;;;;11.68;6.32;;;;;;;;;;5105094;28;20164;-84
2021/09/11 11:04:40;;;;;;;10.63;7.07;;;;;;;;;;5086311;28;20063;-84
2021/09/11 11:07:26;;;;;;;11.93;8.60;;;;;;;;;;5099352;28;20048;-85
2021/09/11 11:09:53;;;;;;;9.43;7.10;;;;;;;;;;5075903;28;20058;-84
2021/09/11 11:12:23;;;;;;;10.75;7.53;;;;;;;;;;5073743;28;20115;-84
2021/09/11 11:15:01;;;;;;;16.00;9.35;;;;;;;;;;5075984;28;20263;-84
2021/09/11 11:17:28;;;;;;;14.07;8.63;;;;;;;;;;5076758;28;20110;-84
2021/09/11 11:19:56;;;;;;;12.82;9.15;;;;;;;;;;5075190;28;20662;-85
2021/09/11 11:22:29;;;;;;;16.17;8.75;;;;;;;;;;5075160;28;20059;-82
2021/09/11 11:24:56;;;;;;;10.95;7.93;;;;;;;;;;5091484;28;20052;-85
2021/09/11 11:27:24;;;;;;;11.95;9.02;;;;;;;;;;5073855;28;20294;-83
2021/09/11 11:29:54;;;;;;;9.80;7.32;;;;;;;;;;5059228;28;20040;-83
2021/09/11 11:32:25;;;;;;;17.35;10.15;;;;;;;;;;5101322;28;20078;-83
2021/09/11 11:34:59;;;;;;;13.55;8.63;;;;;;;;;;5110290;28;20086;-83
2021/09/11 11:37:28;;;;;;;12.00;8.00;;;;;;;;;;5096049;28;20043;-83
2021/09/11 11:39:57;;;;;;;13.05;8.68;;;;;;;;;;5064777;28;20286;-83
2021/09/11 11:42:26;;;;;;;15.07;9.60;;;;;;;;;;5057917;28;20080;-83
2021/09/11 11:44:54;;;;;;;13.55;8.52;;;;;;;;;;5075807;28;20271;-83
2021/09/11 11:47:24;;;;;;;15.77;10.82;;;;;;;;;;5067574;28;20091;-83
2021/09/11 11:49:57;;;;;;;12.38;8.77;;;;;;;;;;5067984;28;20181;-84
2021/09/11 11:52:24;;;;;;;15.77;10.05;;;;;;;;;;5084500;28;20047;-84
2021/09/11 11:54:52;;;;;;;13.05;8.90;;;;;;;;;;5113435;28;20042;-84
2021/09/11 11:57:22;;;;;;;16.67;9.20;;;;;;;;;;5128749;28;20055;-83
2021/09/11 12:00:17;;;;;;;16.30;8.20;;;;;;;;;;5087009;28;20109;-83
2021/09/11 12:06:19;;;;;;;12.60;8.63;;;;;;;;;;5121004;28;20079;-83
2021/09/11 12:08:47;;;;;;;13.10;8.32;;;;;;;;;;5115683;28;20059;-83
2021/09/11 12:11:23;;;;;;;15.13;9.98;;;;;;;;;;5125081;28;20391;-84
2021/09/11 12:13:55;;;;;;;15.55;9.65;;;;;;;;;;5131124;28;20067;-83
2021/09/11 12:16:41;;;;;;;13.70;8.68;;;;;;;;;;5114131;28;20062;-84
2021/09/11 12:19:15;;;;;;;15.50;9.82;;;;;;;;;;5101031;28;20386;-84
2021/09/11 12:22:14;;;;;;;12.93;8.65;;;;;;;;;;5082352;28;20194;-84
2021/09/11 12:24:56;;;;;;;16.15;8.93;;;;;;;;;;5132982;27;20522;-84
2021/09/11 12:27:43;;;;;;;13.07;7.28;;;;;;;;;;5116829;28;20320;-84
2021/09/11 12:30:10;;;;;;;14.90;9.05;;;;;;;;;;5110622;28;20040;-84
2021/09/11 12:32:50;;;;;;;16.85;9.63;;;;;;;;;;5109192;28;20035;-84
2021/09/11 12:35:17;;;;;;;14.00;9.13;;;;;;;;;;5111070;28;20043;-84
2021/09/11 12:37:51;;;;;;;15.02;8.90;;;;;;;;;;5109906;28;20519;-83
2021/09/11 12:40:18;;;;;;;11.65;8.65;;;;;;;;;;5101482;28;20115;-83
2021/09/11 12:42:48;;;;;;;16.90;8.65;;;;;;;;;;5128780;28;20039;-83
2021/09/11 12:45:17;;;;;;;13.10;9.73;;;;;;;;;;5143370;27;20039;-83
2021/09/11 12:47:50;;;;;;;14.93;9.57;;;;;;;;;;5137090;27;20346;-83
2021/09/11 12:50:17;;;;;;;13.80;9.45;;;;;;;;;;5119846;28;20132;-83
2021/09/11 12:52:44;;;;;;;18.02;11.73;;;;;;;;;;5094080;28;20051;-83
2021/09/11 12:55:11;;;;;;;13.57;8.93;;;;;;;;;;5141183;27;20066;-84
2021/09/11 12:57:38;;;;;;;16.92;9.50;;;;;;;;;;5115174;27;20706;-84
2021/09/11 13:03:11;;;;;;;14.25;9.25;;;;;;;;;;5102774;28;20193;-84
2021/09/11 13:05:52;;;;;;;16.90;10.52;;;;;;;;;;5100693;28;20068;-83
2021/09/11 13:08:21;;;;;;;13.90;7.68;;;;;;;;;;5129176;28;20103;-83
2021/09/11 13:10:50;;;;;;;14.55;8.95;;;;;;;;;;5145901;27;20058;-84
2021/09/11 13:13:22;;;;;;;11.48;8.57;;;;;;;;;;5134280;28;20073;-83
2021/09/11 13:15:48;;;;;;;11.90;8.75;;;;;;;;;;5098882;28;20056;-83
2021/09/11 13:18:22;;;;;;;12.05;8.07;;;;;;;;;;5103191;28;20386;-83
2021/09/11 13:21:14;;;;;;;11.98;7.43;;;;;;;;;;5093537;28;20074;-84
2021/09/11 13:23:42;;;;;;;15.43;7.88;;;;;;;;;;5089699;28;20040;-83
2021/09/11 13:26:10;;;;;;;11.32;7.55;;;;;;;;;;5107019;28;20032;-83
2021/09/11 13:28:37;;;;;;;12.55;7.90;;;;;;;;;;5092382;28;20094;-84
2021/09/11 13:31:11;;;;;;;9.73;6.97;;;;;;;;;;5111052;28;20326;-83
2021/09/11 13:33:40;;;;;;;12.82;8.00;;;;;;;;;;5088829;28;20074;-84
2021/09/11 13:36:24;;;;;;;14.52;7.93;;;;;;;;;;5104062;28;20060;-84
2021/09/11 13:38:56;;;;;;;14.35;9.23;;;;;;;;;;5104311;28;20056;-84
2021/09/11 13:41:54;;;;;;;11.38;8.18;;;;;;;;;;5089268;28;20064;-83
2021/09/11 13:44:24;;;;;;;13.27;7.70;;;;;;;;;;5079151;28;20076;-84
2021/09/11 13:47:09;;;;;;;13.35;8.80;;;;;;;;;;5087314;28;20048;-84
2021/09/11 13:49:37;;;;;;;14.38;8.95;;;;;;;;;;5109882;28;20066;-85
2021/09/11 13:52:04;;;;;;;10.32;7.57;;;;;;;;;;5100937;28;20108;-83
2021/09/11 13:54:31;;;;;;;11.20;7.32;;;;;;;;;;5110618;27;20055;-84
2021/09/11 13:56:58;;;;;;;11.52;7.80;;;;;;;;;;5088708;28;20067;-84
2021/09/11 13:59:25;;;;;;;9.85;6.25;;;;;;;;;;5083318;28;20066;-83
2021/09/11 14:01:53;;;;;;;11.40;7.20;;;;;;;;;;5084778;28;20050;-83
2021/09/11 14:04:45;;;;;;;12.98;7.55;;;;;;;;;;5089994;28;20040;-83
2021/09/11 14:07:28;;;;;;;9.70;6.90;;;;;;;;;;5080327;28;20117;-84
2021/09/11 14:09:59;;;;;;;14.32;9.07;;;;;;;;;;5105134;28;20139;-85
2021/09/11 14:12:58;;;;;;;12.52;7.82;;;;;;;;;;5080084;28;20059;-83
2021/09/11 14:15:28;;;;;;;12.68;6.63;;;;;;;;;;5082209;28;20078;-84
2021/09/11 14:17:54;;;;;;;10.65;6.65;;;;;;;;;;5101851;28;20266;-84
2021/09/11 14:20:24;;;;;;;9.88;7.18;;;;;;;;;;5097415;28;20623;-84
2021/09/11 14:23:27;;;;;;;10.60;6.68;;;;;;;;;;5083493;28;20059;-83
2021/09/11 14:26:04;;;;;;;9.65;6.45;;;;;;;;;;5109179;27;20054;-84
2021/09/11 14:28:59;;;;;;;13.68;8.23;;;;;;;;;;5125554;27;20519;-84
2021/09/11 14:31:29;;;;;;;14.32;8.32;;;;;;;;;;5120279;28;20051;-84
2021/09/11 14:33:55;;;;;;;9.13;7.55;;;;;;;;;;5103393;28;20101;-83
2021/09/11 14:36:23;;;;;;;9.82;8.07;;;;;;;;;;5111451;28;20147;-82
2021/09/11 14:38:53;;;;;;;10.98;7.40;;;;;;;;;;5118037;28;20100;-83
2021/09/11 14:41:22;;;;;;;15.90;9.40;;;;;;;;;;5120851;27;20048;-83
2021/09/11 14:44:12;;;;;;;10.55;8.88;;;;;;;;;;5117985;27;20048;-84
2021/09/11 14:46:39;;;;;;;13.68;9.55;;;;;;;;;;5113714;28;20055;-84
2021/09/11 14:49:26;;;;;;;;;;;;;;;;;;;;;
2021/09/11 14:52:18;;;;;;;14.30;9.43;;;;;;;;;;5107068;28;20059;-84
2021/09/11 14:54:44;;;;;;;11.13;8.93;;;;;;;;;;5108862;28;20261;-84
2021/09/11 14:57:11;;;;;;;15.30;8.85;;;;;;;;;;5126156;27;20051;-84
2021/09/11 14:59:54;;;;;;;13.10;9.63;;;;;;;;;;5120688;28;20071;-84
2021/09/11 15:02:27;;;;;;;13.07;9.15;;;;;;;;;;5122115;28;20035;-83
2021/09/11 15:05:03;;;;;;;;;;;;;;;;;;5119401;28;20055;-84
2021/09/11 15:07:46;;;;;;;15.88;11.20;;;;;;;;;;5120287;28;19920;-82
2021/09/11 15:10:21;;;;;;;15.05;9.30;;;;;;;;;;5114321;28;20063;-83
2021/09/11 15:12:52;;;;;;;18.05;10.15;;;;;;;;;;5111474;28;20043;-84
2021/09/11 15:15:38;;;;;;;13.73;9.05;;;;;;;;;;5112733;28;20051;-83
2021/09/11 15:18:04;;;;;;;12.93;8.98;;;;;;;;;;5117088;28;20456;-84
2021/09/11 15:20:31;;;;;;;16.75;10.88;;;;;;;;;;5111539;27;20138;-84
2021/09/11 15:22:58;;;;;;;13.55;9.55;;;;;;;;;;5104580;28;20055;-84
2021/09/11 15:25:24;;;;;;;12.98;8.57;;;;;;;;;;5102337;28;20589;-84
2021/09/11 15:27:51;;;;;;;12.93;10.30;;;;;;;;;;5105027;28;20052;-84
2021/09/11 15:30:44;;;;;;;13.52;9.93;;;;;;;;;;5117202;28;20043;-84
2021/09/11 15:33:10;;;;;;;11.10;9.60;;;;;;;;;;5116022;28;20103;-84
2021/09/11 15:35:42;;;;;;;11.32;9.23;;;;;;;;;;5117680;28;20052;-84
2021/09/11 15:38:12;;;;;;;17.45;10.18;;;;;;;;;;5119185;28;20475;-84